createdAt,value
2019-03-10T00:01:30.967Z,93.07
2019-03-10T00:06:35.809Z,38.70
2019-03-10T00:11:40.643Z,38.67
2019-03-10T00:21:56.290Z,10.70
2019-03-10T00:26:59.772Z,6.07
2019-03-10T00:32:03.379Z,6.83
2019-03-10T00:37:07.008Z,5.33
2019-03-10T00:42:11.661Z,4.40
2019-03-10T00:47:15.288Z,42.70
2019-03-10T00:52:18.779Z,20.63
2019-03-10T00:57:22.478Z,59.07
2019-03-10T01:07:33.408Z,90.30
2019-03-10T01:12:37.091Z,124.70
2019-03-10T01:17:42.772Z,270.17
2019-03-10T01:22:47.620Z,135.87
2019-03-10T01:27:52.000Z,71.17
2019-03-10T01:32:55.911Z,57.00
2019-03-10T01:38:00.110Z,37.20
2019-03-10T01:43:03.910Z,56.50
2019-03-10T01:48:07.770Z,17.27
2019-03-10T01:53:11.780Z,10.30
2019-03-10T01:58:17.422Z,6.30
2019-03-10T02:03:21.626Z,5.10
2019-03-10T02:08:25.767Z,3.97
2019-03-10T02:13:30.039Z,3.43
2019-03-10T02:18:33.658Z,3.40
2019-03-10T02:23:46.111Z,3.52
2019-03-10T02:28:50.537Z,3.27
2019-03-10T02:33:54.323Z,3.10
2019-03-10T02:38:57.838Z,3.63
2019-03-10T02:44:01.830Z,6.43
2019-03-10T02:49:05.474Z,5.40
2019-03-10T02:54:09.040Z,4.73
2019-03-10T02:59:13.381Z,4.00
2019-03-10T03:04:16.821Z,3.83
2019-03-10T03:09:20.662Z,3.30
2019-03-10T03:14:24.294Z,3.10
2019-03-10T03:19:27.783Z,3.10
2019-03-10T03:24:31.410Z,3.00
2019-03-10T03:29:34.991Z,2.73
2019-03-10T03:34:38.541Z,3.07
2019-03-10T03:40:20.052Z,3.10
2019-03-10T03:45:23.649Z,2.70
2019-03-10T03:50:27.282Z,3.17
2019-03-10T03:55:30.772Z,2.87
2019-03-10T04:00:34.389Z,2.70
2019-03-10T04:05:37.981Z,2.50
2019-03-10T04:10:41.649Z,2.63
2019-03-10T04:15:45.356Z,2.90
2019-03-10T04:20:48.868Z,2.43
2019-03-10T04:25:52.786Z,2.60
2019-03-10T04:30:56.387Z,2.50
2019-03-10T04:35:59.821Z,2.27
2019-03-10T04:41:03.419Z,2.27
2019-03-10T04:46:07.048Z,2.10
2019-03-10T04:51:10.557Z,2.30
2019-03-10T04:56:18.667Z,2.12
2019-03-10T05:01:23.100Z,2.30
2019-03-10T05:06:26.615Z,1.70
2019-03-10T05:11:30.286Z,2.20
2019-03-10T05:16:33.745Z,2.23
2019-03-10T05:21:37.370Z,2.50
2019-03-10T05:26:40.975Z,2.40
2019-03-10T05:31:44.599Z,2.10
2019-03-10T05:36:48.687Z,2.57
2019-03-10T05:41:52.338Z,2.40
2019-03-10T05:46:55.905Z,2.40
2019-03-10T05:52:00.286Z,2.47
2019-03-10T05:57:03.820Z,2.40
2019-03-10T06:02:07.408Z,2.20
2019-03-10T06:07:11.049Z,2.00
2019-03-10T06:12:14.644Z,2.33
2019-03-10T06:17:18.281Z,2.57
2019-03-10T06:22:21.696Z,2.50
2019-03-10T06:27:25.388Z,2.20
2019-03-10T06:32:28.772Z,2.50
2019-03-10T06:37:32.410Z,2.30
2019-03-10T06:42:36.006Z,2.33
2019-03-10T06:47:39.647Z,2.30
2019-03-10T06:52:43.278Z,2.57
2019-03-10T06:57:46.791Z,2.83
2019-03-10T07:02:50.493Z,2.70
2019-03-10T07:07:54.030Z,2.80
2019-03-10T07:12:57.622Z,2.83
2019-03-10T07:18:01.062Z,2.77
2019-03-10T07:23:06.088Z,2.50
2019-03-10T07:28:14.404Z,2.37
2019-03-10T07:33:35.325Z,2.30
2019-03-10T07:38:41.709Z,2.77
2019-03-10T07:43:55.793Z,2.53
2019-03-10T07:49:07.607Z,2.33
2019-03-10T07:54:13.451Z,2.80
2019-03-10T08:04:40.805Z,2.50
2019-03-10T08:10:01.490Z,2.50
2019-03-10T08:20:22.313Z,2.27
2019-03-10T08:25:33.615Z,2.07
2019-03-10T08:30:54.526Z,2.30
2019-03-10T08:36:05.625Z,2.30
2019-03-10T08:41:29.307Z,2.57
2019-03-10T08:46:34.663Z,2.50
2019-03-10T08:51:40.016Z,2.17
2019-03-10T08:56:47.832Z,2.60
2019-03-10T09:01:51.268Z,2.53
2019-03-10T09:07:05.706Z,2.33
2019-03-10T09:12:19.796Z,2.40
2019-03-10T09:17:27.793Z,2.20
2019-03-10T09:22:42.450Z,2.20
2019-03-10T09:27:56.730Z,2.30
2019-03-10T09:33:12.275Z,2.50
2019-03-10T09:38:33.560Z,2.17
2019-03-10T09:44:08.810Z,2.57
2019-03-10T09:49:29.330Z,2.03
2019-03-10T09:54:51.080Z,2.10
2019-03-10T09:59:56.631Z,2.20
2019-03-10T10:10:09.714Z,2.30
2019-03-10T10:15:20.871Z,2.20
2019-03-10T10:20:28.670Z,2.00
2019-03-10T10:25:42.784Z,2.20
2019-03-10T10:30:51.025Z,2.25
2019-03-10T10:35:56.275Z,2.20
2019-03-10T10:41:17.693Z,2.30
2019-03-10T10:46:22.830Z,2.17
2019-03-10T10:51:34.009Z,2.47
2019-03-10T10:56:48.294Z,2.27
2019-03-10T11:02:03.507Z,2.40
2019-03-10T11:12:12.082Z,2.12
2019-03-10T11:17:36.007Z,2.50
2019-03-10T11:22:47.455Z,2.53
2019-03-10T11:33:07.873Z,2.50
2019-03-10T11:38:19.069Z,2.30
2019-03-10T11:43:24.329Z,2.27
2019-03-10T11:48:32.751Z,2.83
2019-03-10T11:53:44.019Z,2.00
2019-03-10T11:59:01.779Z,1.80
2019-03-10T12:04:10.515Z,2.23
2019-03-10T12:09:22.283Z,1.80
2019-03-10T12:14:25.751Z,1.90
2019-03-10T12:19:29.005Z,1.62
2019-03-10T12:24:32.459Z,1.80
2019-03-10T12:34:39.689Z,1.30
2019-03-10T12:39:44.486Z,1.43
2019-03-10T12:49:53.300Z,3.07
2019-03-10T12:54:57.645Z,4.27
2019-03-10T13:00:01.347Z,3.00
2019-03-10T13:05:04.870Z,2.92
2019-03-10T13:10:09.029Z,2.20
2019-03-10T13:15:12.609Z,1.67
2019-03-10T13:20:27.511Z,1.85
2019-03-10T13:25:21.478Z,2.07
2019-03-10T13:30:25.327Z,1.70
2019-03-10T13:35:28.807Z,3.12
2019-03-10T13:40:32.452Z,3.62
2019-03-10T13:45:36.024Z,4.67
2019-03-10T13:50:39.660Z,18.20
2019-03-10T13:55:43.344Z,5.92
2019-03-10T14:00:49.302Z,27.70
2019-03-10T14:05:52.864Z,89.55
2019-03-10T14:10:56.791Z,48.67
2019-03-10T14:16:00.499Z,49.83
2019-03-10T14:26:07.525Z,4.30
2019-03-10T14:36:14.654Z,2.40
2019-03-10T14:41:18.285Z,2.00
2019-03-10T14:46:21.783Z,1.70
2019-03-10T14:51:25.397Z,3.30
2019-03-10T14:56:29.318Z,2.00
2019-03-10T15:01:33.668Z,2.30
2019-03-10T15:06:38.635Z,1.75
2019-03-10T15:11:42.733Z,1.83
2019-03-10T15:16:46.644Z,1.87
2019-03-10T15:21:50.283Z,2.02
2019-03-10T15:26:53.786Z,2.90
2019-03-10T15:32:03.620Z,8.57
2019-03-10T15:37:07.278Z,32.70
2019-03-10T15:42:10.789Z,16.43
2019-03-10T15:47:28.031Z,143.85
2019-03-10T15:57:35.143Z,164.97
2019-03-10T16:02:39.139Z,114.67
2019-03-10T16:07:42.709Z,74.50
2019-03-10T16:12:46.289Z,26.97
2019-03-10T16:17:49.803Z,9.97
2019-03-10T16:22:55.344Z,10.67
2019-03-10T16:27:58.674Z,12.90
2019-03-10T16:33:02.290Z,5.07
2019-03-10T16:38:05.802Z,5.90
2019-03-10T16:43:09.425Z,5.70
2019-03-10T16:48:13.015Z,36.93
2019-03-10T16:53:16.650Z,24.13
2019-03-10T16:58:20.366Z,15.13
2019-03-10T17:03:23.969Z,3.70
2019-03-10T17:08:27.599Z,9.90
2019-03-10T17:13:31.331Z,6.17
2019-03-10T17:18:34.835Z,1.92
2019-03-10T17:23:39.464Z,1.70
2019-03-10T17:33:46.522Z,1.30
2019-03-10T17:44:00.022Z,8.03
2019-03-10T17:49:30.732Z,10.60
2019-03-10T17:54:34.346Z,153.93
2019-03-10T17:59:37.952Z,132.57
2019-03-10T18:04:41.464Z,7.53
2019-03-10T18:09:45.032Z,3.37
2019-03-10T18:14:48.598Z,2.98
2019-03-10T18:19:51.809Z,3.27
2019-03-10T18:24:55.412Z,2.70
2019-03-10T18:29:59.073Z,3.10
2019-03-10T18:40:06.371Z,29.80
2019-03-10T18:45:09.808Z,2.33
2019-03-10T18:50:13.441Z,2.23
2019-03-10T18:55:16.988Z,1.97
2019-03-10T19:00:20.525Z,1.63
2019-03-10T19:10:27.656Z,1.77
2019-03-10T19:15:31.279Z,1.33
2019-03-10T19:20:36.275Z,1.40
2019-03-10T19:25:39.734Z,1.67
2019-03-10T19:30:43.351Z,1.80
2019-03-10T19:40:50.475Z,1.60
2019-03-10T19:45:54.023Z,1.40
2019-03-10T19:50:57.710Z,1.50
2019-03-10T19:56:03.721Z,5.13
2019-03-10T20:01:07.423Z,1.87
2019-03-10T20:06:11.316Z,1.90
2019-03-10T20:11:14.829Z,1.70
2019-03-10T20:16:18.772Z,1.60
2019-03-10T20:21:22.488Z,1.90
2019-03-10T20:26:26.021Z,2.00
2019-03-10T20:31:29.607Z,1.93
2019-03-10T20:41:36.752Z,3.23
2019-03-10T20:46:40.359Z,2.53
2019-03-10T20:51:43.865Z,2.73
2019-03-10T20:56:47.701Z,2.67
2019-03-10T21:01:51.444Z,2.50
2019-03-10T21:06:56.597Z,12.30
2019-03-10T21:17:03.694Z,5.03
2019-03-10T21:22:07.296Z,3.20
2019-03-10T21:27:10.988Z,2.77
2019-03-10T21:32:14.629Z,2.60
2019-03-10T21:37:18.296Z,2.33
2019-03-10T21:42:21.552Z,2.50
2019-03-10T21:47:24.768Z,2.45
2019-03-10T21:52:28.371Z,2.98
2019-03-10T21:57:31.903Z,3.40
2019-03-10T22:02:35.723Z,2.80
2019-03-10T22:07:39.321Z,3.37
2019-03-10T22:12:42.834Z,2.40
2019-03-10T22:17:46.662Z,2.07
2019-03-10T22:22:50.407Z,3.23
2019-03-10T22:27:54.276Z,3.23
2019-03-10T22:32:57.808Z,2.63
2019-03-10T22:38:01.401Z,4.33
2019-03-10T22:43:05.168Z,119.13
2019-03-10T22:48:08.854Z,40.00
2019-03-10T22:53:12.679Z,23.75
2019-03-10T22:58:16.763Z,160.93
2019-03-10T23:03:20.523Z,57.00
2019-03-10T23:18:35.676Z,27.60
2019-03-10T23:23:39.600Z,55.40
2019-03-10T23:28:43.864Z,4.33
2019-03-10T23:33:47.655Z,4.17
2019-03-10T23:38:51.368Z,2.80
2019-03-10T23:43:54.946Z,32.90
2019-03-10T23:49:02.458Z,324.73
2019-03-10T23:54:16.832Z,271.75
2019-03-10T23:59:21.593Z,236.37
